Plainfield, NJ (07061)

12:10 PM EDT on October 24, 2014 (GMT -0400)
Plainfield, NJ 07060 | Change Station
CLOSE
Current Station
Personal Weather Station
Location: Plainfield, NJ
Elevation: 95 ft
Nearby Weather Stations

Elev 95 ft 40.61 °N, 74.40 °W | Updated 0 second ago

Overcast
Overcast
57.2 °F
Feels Like 57.2 °F
N
2.2
Wind Variable Wind from ENE
Gusts 2.2 mph

Today
High -- | Low -- °F
--% Chance of Precip.
Yesterday
High -- | Low -- °F
Precip. -- in
7:18 AM 6:04 PM
New Moon, 1% visible
Pressure 29.85 in
Visibility 10.0 miles
Clouds Mostly Cloudy 3700 ft
Dew Point 46 °F
Humidity 67%
Rainfall 0.00 in
Snow Depth Not available.
UV 2 out of 12
Pollen 1.70 out of 12
Air Quality Not available.
Flu Activity Sporadic
METAR KLDJ 241555Z AUTO 34011KT 10SM BKN037 16/08 A2985 RMK AO2 T01640079

More Conditions Fewer Conditions

Pressure 29.85 in
Visibility 10.0 miles
Clouds Mostly Cloudy 3700 ft
Dew Point 46 °F
Humidity 67%
Rainfall 0.00 in
Snow Depth Not available.
UV 2 out of 12
Pollen 1.70 out of 12
Air Quality Not available.
Flu Activity Sporadic
METAR KLDJ 241555Z AUTO 34011KT 10SM BKN037 16/08 A2985 RMK AO2 T01640079

More Conditions Fewer Conditions

10-Day Weather Forecast

Almanac

Astronomy

Oct. 24, 2014 Rise Set
Actual Time 7:18 AM EDT 6:04 PM EDT
Civil Twilight 6:50 AM EDT 6:32 PM EDT
Nautical Twilight 6:18 AM EDT 7:04 PM EDT
Astronomical Twilight 5:47 AM EDT 7:35 PM EDT
Moon 7:55 AM EDT 6:42 PM EDT
Length of Visible Light 11h 41m
Length of Day
10h 45m
Tomorrow will be 2m 30s shorter.
New Moon, 1% of the Moon is Illuminated
Today
New Moon
Oct 30
First Quarter
Nov 6
Full
Nov 14
Last Quarter
Nov 22
New

Today's Extremes

State Highs State Lows

Community

WunderPhotos

Upload Photos

1,764,600 photos uploaded!

WunderBlogs® & News

Nearby

Snow Depth

Station Depth Elevation
No new snow has been reported.

Earthquake Activity

City Distance Mag. Time & Date
No recent earthquake activity has been reported nearby.
Minimum magnitude displayed is 2.5.

Coastal Water Temperatures

Place Temperature
Sandy Hook, NJ 57.9 °F
The Battery, NY 61.0 °F
Bergen Point West Reach, NJ 60.1 °F
Kings Point, NY 57.9 °F

Nearby Weather Stations